Tiempo atmosférico en la estación meteorológica de Punta Galea, Bizkaia (90 m.)



Fecha
DESCASC
Temp. máxima en grados centígrados (hora)
DESCASC
Temp. mínima en grados centígrados (hora)
DESCASC
Temp. media en grados centígrados
DESCASC
Racha de viento máxima en m/sg (hora)
DESCASC
Velocidad máxima media en intervalos de 10 minutos(hora)
DESCASC
Precipitaciones diarias en mm
DESCASC
Precipitaciones de 00:00 a 06:00 en mm
DESCASC
Precipitaciones de 06:00 a 12:00 en mm
DESCASC
Precipitaciones de 12:00 a 18:00 en mm
DESCASC
Precipitaciones de 18:00 a 24:00 en mm
DESCASC
26-11-2020 18.8 (19:50) 13.4 (03:20) 16.1 11.39 (09:10) 4.72 (08:50) 0.1 0 0 0.1 0
25-11-2020 17.2 (14:10) 11.3 (05:50) 14.3 9.72 (07:10) 4.72 (11:10) 0 0 0 0 0
24-11-2020 18.4 (12:40) 8.4 (00:40) 13.4 8.33 (21:50) 4.17 (09:00) 0 0 0 0 0
23-11-2020 16.2 (16:00) 6.3 (08:40) 11.3 5 (07:30) 3.33 (07:30) 0 0 0 0 0
22-11-2020 16.8 (15:50) 6.6 (00:00) 11.7 6.11 (00:20) 3.33 (00:30) 0 0 0 0 0
21-11-2020 14.7 (15:20) 5.3 (00:00) 10 6.11 (23:59) 3.33 (23:59) 0 0 0 0 0
20-11-2020 16 (13:30) 8.4 (00:00) 12.2 5 (15:50) 3.33 (15:50) 0.4 0 0.3 0 0.1
19-11-2020 19.3 (04:50) 11.1 (00:00) 15.2 10 (07:50) 5.56 (04:10) 3.1 0 2.8 0.3 0
18-11-2020 22.2 (14:10) 14.9 (00:00) 18.6 9.17 (04:00) 4.17 (00:50) 0 0 0 0 0
17-11-2020 21.1 (16:10) 10.2 (00:00) 15.7 7.78 (23:40) 3.89 (23:59) 0 0 0 0 0
16-11-2020 17.7 (13:20) 11.2 (00:00) 14.5 7.22 (03:40) 3.89 (03:40) 1.4 1.3 0.1 0 0
15-11-2020 22.7 (12:30) 14.4 (00:00) 18.6 15 (05:40) 6.94 (16:40) 0.7 0 0 0 0.7
14-11-2020 21.6 (14:20) 14 (00:00) 17.8 14.17 (15:10) 5.28 (00:40) 0.1 0 0 0.1 0
13-11-2020 20.6 (16:40) 13.8 (00:00) 17.2 9.17 (03:30) 4.72 (21:50) 0 0 0 0 0
12-11-2020 20.4 (16:40) 14.2 (00:00) 17.3 16.39 (22:20) 4.17 (23:20) 0 0 0 0 0
11-11-2020 20.7 (14:50) 11.5 (00:00) 16.1 9.72 (09:50) 4.17 (14:30) 0.1 0 0 0.1 0
10-11-2020 18.8 (17:10) 13.1 (00:00) 15.9 6.39 (03:00) 3.06 (02:50) 19.9 19.9 0 0 0
09-11-2020 21.6 (14:00) 15.7 (00:00) 18.7 10 (00:30) 3.61 (00:20) 0.5 0 0 0 0.5
08-11-2020 21.6 (14:20) 16.5 (00:00) 19.1 10.83 (06:10) 4.72 (06:10) 0.1 0 0 0.1 0
07-11-2020 21.7 (01:10) 14.4 (00:00) 18.1 12.5 (04:20) 5.56 (01:30) 3.2 0 3.2 0 0
06-11-2020 22.2 (21:10) 16.8 (00:00) 19.5 18.33 (16:10) 8.61 (15:50) 0.1 0 0.1 0 0
05-11-2020 18.7 (23:59) 8.8 (00:00) 13.8 9.72 (23:59) 4.72 (23:59) 0 0 0 0 0
04-11-2020 16 (15:30) 9.6 (00:00) 12.8 8.06 (15:30) 4.44 (14:30) 9.4 5.2 4.2 0 0
03-11-2020 16.9 (10:00) 10.9 (00:00) 13.9 11.39 (11:50) 5.56 (11:30) 8.6 5.2 1.3 0.7 1.4
02-11-2020 25.6 (13:30) 13.7 (00:00) 19.7 20.28 (14:10) 12.22 (14:20) 1.5 0 0 0 1.5
01-11-2020 23.7 (13:00) 18.1 (00:00) 20.9 7.78 (17:50) 3.89 (18:20) 0 0 0 0 0
31-10-2020 25.2 (15:30) 12.2 (00:00) 18.7 8.61 (10:50) 3.89 (06:20) 0 0 0 0 0
30-10-2020 18.2 (16:20) 10.6 (00:00) 14.4 3.61 (16:10) 2.78 (08:10) 0.1 0 0 0 0.1
29-10-2020 19 (12:10) 11.4 (00:00) 15.2 5 (10:00) 3.06 (10:10) 0 0 0 0 0
28-10-2020 18.9 (16:50) 13.2 (00:00) 16 6.94 (04:40) 3.89 (03:20) 0 0 0 0 0

Gráficas

Temp. máximas Temp. mínimas Temp. medias Precipitaciones Rachas de viento máximas Velocidades máximas media en intervalos de 10 minutos

Datos horarios

Fecha y hora oficial Temperatura (ºC) Velocidad del viento (km/h) Dirección del viento Racha (km/h) Dirección de racha Precipitación (mm) Presión (hPa) Tendencia (hPa) Humedad (%)
2020-11-26 23:00:00 16.8 11 Sudeste 20 Sudeste 0 1002.6 -0.4 66
2020-11-26 22:00:00 17.1 11 Sudeste 26 Sudeste 0 1002.8 -0.1 65
2020-11-26 21:00:00 17.5 12 Sudeste 30 Sudeste 0 1002.5 -- 64
2020-11-26 20:00:00 16.6 11 Sudeste 29 Sudeste 0 1003 -- 65
2020-11-26 19:00:00 17.4 12 Sudeste 30 Sudeste 0 1002.9 -- 65
2020-11-26 18:00:00 16.7 12 Sudeste 41 Sudeste 0.1 1002.6 -- 65
2020-11-26 17:00:00 16.2 13 Sudeste 31 Sudeste 0 1002.6 -- 63
2020-11-26 16:00:00 17.1 13 Sudeste 34 Sudeste 0 1002.1 -- 63
2020-11-26 15:00:00 17.6 13 Sudeste 33 Sudeste 0 1001.7 -- 61
2020-11-26 14:00:00 17.4 10 Sudeste 25 Sudeste 0 1002 -- 60
2020-11-26 13:00:00 17 9 Sudeste 37 Sur 0 1002.1 -- 60
2020-11-26 12:00:00 17.7 14 Sudeste 36 Sur 0 1002.3 -- 60
2020-11-26 11:00:00 16.9 12 Sudeste 30 Sudeste 0 1002.5 -- 62
2020-11-26 10:00:00 16.2 9 Sur 41 Sur 0 1002.7 -- 64
2020-11-26 09:00:00 16.1 14 Sur 36 Sudeste 0 1002 -- 64
2020-11-26 08:00:00 15.2 13 Sur 32 Sur 0 1001.7 -- 63
2020-11-26 07:00:00 15.4 12 Sur 29 Sudeste 0 1001.4 -- 65
2020-11-26 06:00:00 15.4 10 Sur 24 Sur 0 1001.1 -- 66
2020-11-26 05:00:00 14.6 9 Sudeste 19 Sur 0 1001.3 -- 68
2020-11-26 04:00:00 14.2 7 Sur 27 Sudeste 0 1001.3 -- 69
2020-11-26 03:00:00 14.9 12 Sudeste 25 Sudeste 0 1001.1 -- 68
2020-11-26 02:00:00 15.1 11 Sur 26 Sur 0 1000.7 -- 67
2020-11-26 01:00:00 14.2 9 Sudeste 23 Sudeste 0 1001.2 -- 66
2020-11-26 00:00:00 15 7 Sur 18 Sudeste 0 1001.2 -- 65
2020-11-25 23:00:00 14.1 5 Sudeste 24 Sudeste 0 1001.5 -- 67
2020-11-25 22:00:00 14.7 12 Sudeste 23 Sur 0 1001.3 -- 68
2020-11-25 21:00:00 14.7 8 Sudeste 15 Sudeste 0 1001.5 -- 70
2020-11-25 20:00:00 14 5 Sudeste 14 Sur 0 1001.9 -- 69
2020-11-25 19:00:00 14.2 8 Sur 18 Sudeste 0 1001.7 -- 68
2020-11-25 18:00:00 14.2 6 Sur 18 Sur 0 1001.6 -- 64
2020-11-25 17:00:00 14.5 6 Sur 26 Sudeste 0 1001.5 -- 61
2020-11-25 16:00:00 15.2 9 Sur 23 Sur 0 1001.3 -- 55
2020-11-25 15:00:00 15.9 13 Sur 28 Sur 0 1001.7 -- 54
2020-11-25 14:00:00 15.8 11 Sur 32 Sur 0 1001.9 -- 56
2020-11-25 13:00:00 16.3 16 Sur -- -- -- 1002.4 -- 57
2020-11-25 12:00:00 15.1 14 Sur 32 Sudeste 0 1003.1 -- 61
2020-11-25 11:00:00 15.3 16 Sudeste 31 Este 0 1003.5 -- 64
2020-11-25 10:00:00 14.2 13 Sur 28 Sur 0 1003.2 -- 66
2020-11-25 09:00:00 13 12 Sur 31 Sudeste 0 1002.8 -- 67
2020-11-25 08:00:00 12.9 13 Sudeste 35 Sur 0 1002.5 -- 61
2020-11-25 07:00:00 14.5 14 Sur 28 Sur 0 1002.6 -- 61
2020-11-25 06:00:00 14.1 12 Sur 27 Sur 0 1002.3 -- 64
2020-11-25 05:00:00 13.5 11 Sudeste 29 Sudeste 0 1002.7 -- 62
2020-11-25 04:00:00 13.6 13 Sudeste 24 Sudeste 0 1003.2 -- 61
2020-11-25 03:00:00 13.4 9 Sur 22 Sudeste 0 1003.3 -- 60
2020-11-25 02:00:00 15 10 Sudeste 34 Sur 0 1003.7 -- 60
2020-11-25 01:00:00 13.7 9 Sur 23 Sudoeste 0 1004.1 -- 60
2020-11-25 00:00:00 13.8 10 Sur 27 Sur 0 1004.5 -- 58
2020-11-24 23:00:00 13.4 10 Sur 27 Sur 0 1004.8 -- 57
2020-11-24 22:00:00 15 15 Sur 30 Sur 0 1005.1 -- 53
2020-11-24 21:00:00 15.3 9 Sur 18 Sudeste 0 1005.7 -- 54
2020-11-24 20:00:00 14 9 Sudeste 17 Sur 0 1005.9 -- 60
2020-11-24 19:00:00 14.9 7 Sudeste 12 Sur 0 1006.3 -- 58
2020-11-24 18:00:00 13.9 7 Sur 12 Sudeste 0 1006.5 -- 57
2020-11-24 17:00:00 15.7 5 Este 10 Sudeste 0 1006.8 -- 53
2020-11-24 16:00:00 16.9 5 Sudeste 13 Sudeste 0 1007.1 -- 47
2020-11-24 15:00:00 17.2 3 Sudeste 10 Sudeste 0 1008 -- 44
2020-11-24 14:00:00 16.9 2 Sudoeste 13 Sudoeste 0 1009 -- 47
2020-11-24 13:00:00 17.9 6 Sur 21 Sudoeste 0 1009.7 -- 44
2020-11-24 12:00:00 17.5 10 Sudoeste -- -- -- 1010.5 -- 44
2020-11-24 11:00:00 15.9 11 Sur 24 Sur 0 1010.3 -- 48
2020-11-24 10:00:00 13.7 10 Sur 29 Sur 0 1009.9 -- 52
2020-11-24 09:00:00 14.6 15 Sur 28 Sudeste 0 1009.4 -- 50
2020-11-24 08:00:00 13 13 Sur 22 Sur 0 1009.3 -- 50
2020-11-24 07:00:00 13.2 13 Sur 25 Sur 0 1009 -- 53
2020-11-24 06:00:00 12.1 12 Sudeste 26 Sudeste 0 1009 -- 60
2020-11-24 05:00:00 11.2 13 Sur 24 Sur 0 1009.5 -- 62
2020-11-24 04:00:00 10.7 13 Sur 22 Sur 0 1010.6 -- 68
2020-11-24 03:00:00 10.3 10 Sur 19 Sur 0 1011.8 -- 76
2020-11-24 02:00:00 10.3 11 Sur 17 Sudeste 0 1012.5 -- 85
2020-11-24 01:00:00 9.8 9 Sur 16 Sudeste 0 1013.6 -- 89
2020-11-24 00:00:00 10.6 8 Sur 16 Sudeste 0 1014.2 -- 91
2020-11-23 23:00:00 9.2 8 Sur 15 Sur 0 1015.1 -- 92
2020-11-23 22:00:00 11.4 8 Sur 14 Sur 0 1015.5 -1 92
2020-11-23 21:00:00 12 9 Sur 13 Sur 0 1016 -- 91
2020-11-23 20:00:00 11.9 8 Sur 12 Sur 0 1016.1 -- 84
2020-11-23 19:00:00 12.8 5 Sur 7 Sur 0 1016.5 -- 88
2020-11-23 18:00:00 13.6 0 Calma -- -- 0 1016.5 -- 85
2020-11-23 17:00:00 14.3 0 Calma 3 Nordeste 0 1016.2 -- 81
2020-11-23 16:00:00 15.4 0 Calma 5 Norte 0 1016.6 -- 74
2020-11-23 15:00:00 14.4 2 Norte 6 Norte 0 1017.1 -- 70
2020-11-23 14:00:00 14.6 2 Nordeste 10 Sudeste 0 1017.2 -- 66
2020-11-23 13:00:00 13.6 7 Sur 15 Sur 0 1018.3 -- 68
2020-11-23 12:00:00 14.4 9 Sur 18 Sur 0 1018.9 -- 79
2020-11-23 11:00:00 11.3 11 Sur 18 Sur 0 1019 -- 90
2020-11-23 10:00:00 9.3 10 Sur 17 Sur 0 1019.3 -- 97
2020-11-23 09:00:00 7.6 11 Sur 17 Sur 0 1019 -- 97
2020-11-23 08:00:00 8.2 11 Sur 18 Sur 0 1018.6 -- 97
2020-11-23 07:00:00 8.5 10 Sur 16 Sur 0 1018.4 -- 97
2020-11-23 06:00:00 8.8 10 Sur 15 Sur 0 1018.6 -- 97
2020-11-23 05:00:00 9.7 9 Sur 17 Sur 0 1018.5 -- 96
2020-11-23 04:00:00 9.6 10 Sur 15 Sudeste 0 1018.7 -- 96
2020-11-23 03:00:00 10.3 9 Sur 14 Sur 0 1018.7 -- 96
2020-11-23 02:00:00 10 10 Sur 14 Sur 0 1019 -- 96
2020-11-23 01:00:00 10.3 9 Sur 14 Sur 0 1018.8 -- 96
2020-11-23 00:00:00 10.8 9 Sur 13 Sur 0 1019 -- 96
2020-11-22 23:00:00 10.7 8 Sur 11 Sur 0 1018.9 -- 96
2020-11-22 22:00:00 11.7 7 Sur 10 Sur 0 1018.6 -- 95
2020-11-22 21:00:00 11.6 5 Sur 8 Sur 0 1018.5 -- 94
2020-11-22 20:00:00 12.4 2 Sudoeste 8 Noroeste 0 1018 -- 91
2020-11-22 19:00:00 14.2 7 Noroeste 14 Oeste 0 1017.9 -- 86
2020-11-22 18:00:00 14.3 8 Noroeste 14 Noroeste 0 1017.3 -- 88
2020-11-22 17:00:00 14.5 4 Noroeste 11 Noroeste 0 1016.6 -- 84
2020-11-22 16:00:00 15.3 6 Noroeste 13 Noroeste 0 1016.5 -- 78
2020-11-22 15:00:00 15.1 6 Noroeste 13 Noroeste 0 1016.7 -- 78
2020-11-22 14:00:00 15.1 8 Noroeste 13 Noroeste 0 1017.2 -- 71
2020-11-22 13:00:00 14.2 5 Noroeste 10 Oeste 0 1017.2 -- 56
2020-11-22 12:00:00 14.4 4 Sur 12 Sudoeste 0 1017.9 -- 53
2020-11-22 11:00:00 11.7 7 Sur 13 Sur 0 1018 -- 56
2020-11-22 10:00:00 12 6 Sur 12 Sur 0 1017.4 -- 59
2020-11-22 09:00:00 9.6 7 Sur 12 Sur 0 1017.3 -- 61
2020-11-22 08:00:00 10 8 Sur 13 Sur 0 1016.5 -- 60
2020-11-22 07:00:00 9.6 8 Sur 13 Sur 0 1016 -- 62
2020-11-22 06:00:00 10 8 Sur 13 Sur 0 1015.7 -- 62
2020-11-22 05:00:00 9.9 8 Sur 16 Sur 0 1015.4 -- 62
2020-11-22 04:00:00 10.8 10 Sur 19 Sudeste 0 1015.1 -- 63
2020-11-22 03:00:00 9.6 10 Sur 17 Sur 0 1015 -- 71
2020-11-22 02:00:00 8.6 11 Sur 19 Sur 0 1015.5 -- 78
2020-11-22 01:00:00 8.2 10 Sudeste 22 Sudeste 0 1015.9 -- 93
2020-11-22 00:00:00 8.9 12 Sur 22 Sudeste 0 1016.1 -- 93
2020-11-21 23:00:00 8 10 Sur 15 Sudeste 0 1017.2 -- 92
2020-11-21 22:00:00 9.2 6 Sur 9 Sudeste 0 1017.8 -- 91
2020-11-21 21:00:00 9.7 5 Sudeste 10 Sur 0 1018.1 -- 88
2020-11-21 20:00:00 10.8 7 Sur 13 Sur 0 1018.2 -- 82
2020-11-21 19:00:00 10.1 7 Sur 16 Sudeste 0 1018.1 -- 80
2020-11-21 18:00:00 11.8 9 Sudeste 14 Sudeste 0 1018.1 -- 75
2020-11-21 17:00:00 11.4 5 Este 15 Nordeste 0 1018.1 -- 69
2020-11-21 16:00:00 13.2 11 Este 16 Nordeste 0 1017.7 -- 65
2020-11-21 15:00:00 13.4 5 Nordeste 14 Este 0 1017.8 -- 63
2020-11-21 14:00:00 14.3 4 Este 16 Este 0 1018.8 -- 60
2020-11-21 13:00:00 12.9 5 Sudeste 17 Este 0 1020 -- 66
2020-11-21 12:00:00 12.3 7 Este 14 Sur 0 1021.1 -- 76
2020-11-21 11:00:00 10 8 Sur 16 Sudeste 0 1021.1 -- 91
2020-11-21 10:00:00 8 7 Sudeste 14 Sur 0 1021.4 -- 97
2020-11-21 09:00:00 6.2 7 Sur 14 Sur 0 1021.3 -- 97
2020-11-21 08:00:00 6.7 9 Sur 15 Sur 0 1021.7 -- 97
2020-11-21 07:00:00 6.6 8 Sur 12 Sur 0 1021.5 -- 97
2020-11-21 06:00:00 7.6 6 Sur 12 Sur 0 1021.3 -- 96
2020-11-21 05:00:00 7.1 6 Sur 11 Sudeste 0 1021.5 -- 96
2020-11-21 04:00:00 8.9 6 Sur 13 Sur 0 1021.5 -- 96
2020-11-21 03:00:00 8 6 Sur 11 Sur 0 1022.1 -- 95
2020-11-21 02:00:00 8.1 8 Sur 14 Sur 0 1022.6 -- 95
2020-11-21 01:00:00 9.3 9 Sur 13 Sur 0 1023.1 -- 94
2020-11-21 00:00:00 9.9 9 Sur 12 Sur 0 1023.5 -- 94
2020-11-20 23:00:00 9 8 Sur 13 Sur 0 1023.8 -- 93
2020-11-20 22:00:00 11.7 5 Sur 7 Sur 0 1024.5 -- 89
2020-11-20 21:00:00 11.9 5 Sur 6 Sur 0 1024.3 -- 88
2020-11-20 20:00:00 10.5 4 Sur 8 Sur 0.1 1024.9 -- 87
2020-11-20 19:00:00 11.2 5 Sudeste 10 Sudeste 0 1025 -- 86
2020-11-20 18:00:00 12.4 6 Sudeste 15 Sudeste 0 1024.7 -- 84
2020-11-20 17:00:00 13.3 5 Sudeste 15 Este 0 1024.1 -- 78
2020-11-20 16:00:00 14 11 Este 18 Nordeste 0 1024.4 -- 76
2020-11-20 15:00:00 14.6 6 Este 12 Nordeste 0 1024.5 -- 76
2020-11-20 14:00:00 14 5 Este 10 Norte 0 1024.8 -- 84
2020-11-20 13:00:00 13.4 4 Noroeste 9 Noroeste 0 1026.1 -- 87
2020-11-20 12:00:00 14.6 2 Noroeste 11 Sur 0 1026.8 -- 93
2020-11-20 11:00:00 12.5 7 Sudeste 12 Sudeste 0.2 1026.7 -- 97
2020-11-20 10:00:00 13.1 6 Sudeste 11 Sur 0 1026.9 -- 97
2020-11-20 09:00:00 11.8 7 Sur 12 Sudeste 0 1027.1 -- 97
2020-11-20 08:00:00 11.1 7 Sur 12 Sur 0.1 1026.5 -- 97
2020-11-20 07:00:00 10.6 8 Sur 11 Sur 0 1026.3 -- 97
2020-11-20 06:00:00 11.7 7 Sur 11 Sudeste 0 1026.6 -- 97
2020-11-20 05:00:00 12 7 Sur 10 Sur 0 1027 -- 97
2020-11-20 04:00:00 13 7 Sur 9 Sur 0 1027.3 -- 97
2020-11-20 03:00:00 12.6 6 Sur 9 Sudeste 0 1027.4 -- 97
2020-11-20 02:00:00 12.6 6 Sudeste 9 Sur 0 1027.4 -- 97
2020-11-20 01:00:00 11.5 6 Sur 11 Sudeste 0 1027.8 -- 97
2020-11-20 00:00:00 12.7 6 Sur 9 Sur 0 1028.1 -- 96
2020-11-19 23:00:00 12.6 5 Sur 9 Sudeste 0 1028.7 -- 96
2020-11-19 22:00:00 13.9 6 Sur 9 Sur 0 1028.2 -- 96
2020-11-19 21:00:00 13.2 5 Sur 10 Sudeste 0 1027.9 -- 96
2020-11-19 20:00:00 12.2 6 Sur 8 Sur 0 1027.8 -- 96
2020-11-19 19:00:00 12.9 5 Sur 10 Sudoeste 0 1027.7 -- 95
2020-11-19 18:00:00 13.7 5 Sur 15 Este 0 1027.7 -- 95
2020-11-19 17:00:00 13.7 12 Nordeste 22 Norte 0 1028 -- 91
2020-11-19 16:00:00 14.6 8 Nordeste 24 Norte 0 1027.8 -- 83
2020-11-19 15:00:00 14.7 9 Norte 22 Nordeste 0 1027.4 -- 81
2020-11-19 14:00:00 14.8 6 Nordeste 14 Norte 0.1 1026.4 -- 91
2020-11-19 13:00:00 13.9 8 Nordeste 23 Norte 0.2 1026.8 -- 96
2020-11-19 12:00:00 14.6 7 Norte 26 Norte 0.1 1027.4 -- 95
2020-11-19 11:00:00 14.5 13 Nordeste 26 Nordeste 0.3 1026.9 -- 96
2020-11-19 10:00:00 14.9 6 Noroeste 24 Nordeste 0.8 1026.3 -- 97
2020-11-19 09:00:00 14.8 14 Nordeste 27 Nordeste 1.1 1026 -- 97
2020-11-19 08:00:00 14.9 18 Nordeste 36 Nordeste 0.2 1024.5 -- 98
2020-11-19 07:00:00 17.5 14 Nordeste 24 Norte 0.3 1023.1 -- 97
2020-11-19 06:00:00 16.9 3 Nordeste 12 Noroeste 0 1022.4 -- 96
2020-11-19 05:00:00 18.2 7 Noroeste 29 Noroeste 0 1022.1 -- 96
2020-11-19 04:00:00 17.3 15 Noroeste 27 Noroeste 0 1021.3 -- 91
2020-11-19 03:00:00 16 3 Sudoeste 14 Sur 0 1020.5 -- 91
2020-11-19 02:00:00 15.3 9 Sur 13 Sur 0 1019.4 -- 90
2020-11-19 01:00:00 16.2 10 Sudeste 13 Sur 0 1019.3 -- 90
2020-11-19 00:00:00 16.3 10 Sur 14 Sur 0 1018.9 -- 90
2020-11-18 23:00:00 16.2 6 Sur 8 Sur 0 1018.6 -- 85
2020-11-18 22:00:00 16.5 0 Calma 5 Sudeste 0 1017.5 -- 77
2020-11-18 21:00:00 17 4 Sudeste 8 Sudeste 0 1016.7 -- 64
2020-11-18 20:00:00 18.2 6 Sudeste 8 Este 0 1016.2 -- 62
2020-11-18 19:00:00 17.4 0 Calma 17 Este 0 1015.3 -- 63
2020-11-18 18:00:00 18.8 6 Sudeste 13 Sudeste 0 1014.8 -- 60
2020-11-18 17:00:00 20.3 5 Este 16 Este 0 1014.3 -- 57
2020-11-18 16:00:00 21 10 Este 18 Este 0 1014.1 -- 58
2020-11-18 15:00:00 21.7 8 Sudeste 21 Sudeste 0 1014.2 -- 53
2020-11-18 14:00:00 22.1 9 Sudeste 19 Sudeste 0 1014.3 -- 51
2020-11-18 13:00:00 21.3 11 Sudeste 20 Sudeste 0 1014.5 -- 51
2020-11-18 12:00:00 21 11 Sudeste 24 Sur 0 1014.6 -- 54
2020-11-18 11:00:00 20.3 12 Sudeste 25 Sur 0 1014.3 -- 54
2020-11-18 10:00:00 19.5 13 Sur 22 Sudeste 0 1013.9 -- 54
2020-11-18 09:00:00 17.7 12 Sur 25 Sur 0 1012.9 -- 55
2020-11-18 08:00:00 17.2 10 Sur 24 Sur 0 1012.1 -- 53
2020-11-18 07:00:00 17.2 10 Sur 17 Sur 0 1011.7 -- 51
2020-11-18 06:00:00 19.1 9 Sur 32 Sudoeste 0 1011.2 -- 44
2020-11-18 05:00:00 20.4 15 Sur 29 Sur 0 1011 -- 40
2020-11-18 04:00:00 19.9 11 Sur 33 Sur 0 1010.5 -- 39
2020-11-18 03:00:00 19.9 12 Sur 29 Sudoeste 0 1010.6 -- 41
2020-11-18 02:00:00 19.1 13 Sur 28 Sur 0 1010.7 -- 42
2020-11-18 01:00:00 18.1 13 Sur 32 Sur 0 1011.4 -- 44
2020-11-18 00:00:00 18.6 14 Sur 28 Sur 0 1011.3 -- 41
2020-11-17 23:00:00 18.9 12 Sur 25 Sudoeste 0 1011.6 -- 43
2020-11-17 22:00:00 18.9 10 Sur 19 Sur 0 1011.7 -- 49
2020-11-17 21:00:00 17.7 9 Sur 19 Sur 0 1011.6 -- 56
2020-11-17 20:00:00 17.9 9 Sur 20 Sur 0 1011.6 -- 60
2020-11-17 19:00:00 17.9 9 Sur 20 Sudeste 0 1011.5 -- 59
2020-11-17 18:00:00 18.9 7 Sudeste 14 Sur 0 1011.4 -- 60
2020-11-17 17:00:00 20.1 6 Sur 14 Sudeste 0 1011.6 -- 55
2020-11-17 16:00:00 20.9 8 Sudeste 20 Sudeste 0 1011.5 -- 52
2020-11-17 15:00:00 20.5 9 Sudeste 21 Sudeste 0 1011.9 -- 52
2020-11-17 14:00:00 19.3 9 Sudeste 19 Sudeste 0 1012.6 -- 57
2020-11-17 13:00:00 17.6 9 Sudeste 18 Sudeste 0 1013.6 -- 61
2020-11-17 12:00:00 17.9 5 Sudeste 14 Sur 0 1014.8 -- 65
2020-11-17 11:00:00 15.8 6 Sudeste 17 Sur 0 1015.3 -- 71
2020-11-17 10:00:00 13.5 5 Sur 14 Sur 0 1015.2 -- 81
2020-11-17 09:00:00 11.5 7 Sur 18 Sur 0 1015.2 -- 92
2020-11-17 08:00:00 11.2 10 Sur 17 Sur 0 1014.8 -- 93
2020-11-17 07:00:00 11.2 10 Sur 19 Sur 0 1014.4 -- 93
2020-11-17 06:00:00 12 10 Sur 23 Sudeste 0 1014.4 -- 94
2020-11-17 05:00:00 10.9 12 Sudeste 23 Sur 0 1014.6 -- 94
2020-11-17 04:00:00 10.3 10 Sur 19 Sur 0 1015.1 -- 95
2020-11-17 03:00:00 10.8 9 Sur 19 Sur 0 1015.6 -- 95
2020-11-17 02:00:00 11.9 8 Sur 15 Sur 0 1016.6 -- 95
2020-11-17 01:00:00 12 9 Sur 19 Sur 0 1016.4 -- 95
2020-11-17 00:00:00 12.1 9 Sur 15 Sur 0 1017 -- 95
2020-11-16 23:00:00 12.6 7 Sudeste 15 Sudeste 0 1017.1 -- 95
2020-11-16 22:00:00 13 9 Sur 13 Sur 0 1017.2 -- 94
2020-11-16 21:00:00 12.2 6 Sur 8 Sur 0 1017.1 -- 92
2020-11-16 20:00:00 13.8 5 Sur 8 Sur 0 1016.8 -- 91
2020-11-16 19:00:00 15.3 5 Sudeste 8 Sudeste 0 1016.7 -- 88
2020-11-16 18:00:00 16.3 3 Nordeste 7 Nordeste 0 1016.8 -- 87
2020-11-16 17:00:00 16 4 Nordeste 6 Nordeste 0 1016.5 -- 81
2020-11-16 16:00:00 16.6 3 Nordeste 6 Norte 0 1016.3 -- 78
2020-11-16 15:00:00 16.2 2 Norte 8 Norte 0 1016.3 -- 76
2020-11-16 14:00:00 16.5 4 Norte 8 Norte 0 1016.8 -- 81
2020-11-16 13:00:00 16.3 3 Noroeste 10 Oeste 0 1016.3 -- 81
2020-11-16 12:00:00 16.2 3 Sur 9 Sudeste 0 1016.8 -- 95
2020-11-16 11:00:00 16.2 6 Sudeste 12 Sudeste 0 1016.5 -- 96
2020-11-16 10:00:00 14.5 5 Sudeste 10 Sur 0 1016.7 -- 97
2020-11-16 09:00:00 14.9 6 Sur 10 Sur 0 1015.8 -- 96
2020-11-16 08:00:00 14.2 8 Oeste 15 Oeste 0 1015.7 -- 97
2020-11-16 07:00:00 14.4 7 Sudeste 10 Sur 0.1 1014.7 -- 97
2020-11-16 06:00:00 15.2 3 Sudoeste 18 Oeste 0.1 1014 -- 97
2020-11-16 05:00:00 15.4 2 Oeste 17 Noroeste 0.3 1014.1 -- 97
2020-11-16 04:00:00 16.4 12 Noroeste 26 Noroeste 0.5 1013.9 -- 97
2020-11-16 03:00:00 15 5 Oeste 23 Noroeste 0.4 1013.1 -- 97
2020-11-16 02:00:00 16.3 9 Oeste 22 Oeste 0 1012.8 -- 88
2020-11-16 01:00:00 15.5 11 Oeste 23 Oeste 0 1012.4 -- 88
2020-11-16 00:00:00 15.2 11 Oeste 21 Oeste 0 1012.3 -- 92
2020-11-15 23:00:00 15.3 15 Noroeste 25 Noroeste 0 1012 -- 91
2020-11-15 22:00:00 15 9 Oeste 25 Noroeste 0.2 1011.4 -- 91
2020-11-15 21:00:00 15.6 18 Noroeste 31 Noroeste 0 1010.6 -- 92
2020-11-15 20:00:00 15.8 13 Noroeste 32 Noroeste 0.5 1009.7 -- 97
2020-11-15 19:00:00 15.3 15 Noroeste 38 Noroeste 0 1008.5 -- 96
2020-11-15 18:00:00 17 11 Noroeste 28 Noroeste 0 1007.1 -- 94
2020-11-15 17:00:00 17.1 23 Noroeste 41 Noroeste 0 1006.7 -- 94
2020-11-15 16:00:00 16.4 22 Noroeste 40 Noroeste 0 1006.4 -- 96
2020-11-15 15:00:00 17.3 17 Noroeste 34 Noroeste 0 1005.8 -- 95
2020-11-15 14:00:00 17.5 18 Noroeste 41 Noroeste 0 1005.1 -- 94
2020-11-15 13:00:00 22.2 16 Sudoeste 42 Oeste 0 1002.5 -- 52
2020-11-15 12:00:00 22 18 Sudoeste 50 Sudoeste 0 1002.3 -- 56
2020-11-15 11:00:00 20.9 22 Sudoeste 47 Sudoeste 0 1002 -- 57
2020-11-15 10:00:00 20.6 17 Sudoeste 49 Oeste 0 1002.3 -- 59
2020-11-15 09:00:00 21.3 14 Sudoeste 51 Sudoeste 0 1002.1 -- 59
2020-11-15 08:00:00 21 18 Sudoeste 44 Oeste 0 1001.8 -- 59
2020-11-15 07:00:00 19.8 17 Sur 49 Sudeste 0 1001.8 -- 60
2020-11-15 06:00:00 19.9 16 Sur 54 Sudoeste 0 1002.1 -- 60
2020-11-15 05:00:00 19.9 17 Sur 41 Sur 0 1002.1 -- 57
2020-11-15 04:00:00 19.5 15 Sudoeste 41 Sur 0 1002.4 -- 54
2020-11-15 03:00:00 19.7 11 Sur 38 Sudoeste 0 1002.9 -- 57
2020-11-15 02:00:00 19.6 13 Sudoeste 29 Sur 0 1003.3 -- 60
2020-11-15 01:00:00 20 15 Sur 35 Sudoeste 0 1003.9 -- 61
2020-11-15 00:00:00 19.1 13 Sur 32 Sur 0 1004.3 -- 60
2020-11-14 23:00:00 18.9 11 Sur 32 Sudeste 0 1004.7 -- 61
2020-11-14 22:00:00 19.5 11 Sur 36 Sur 0 1004.7 -- 60
2020-11-14 21:00:00 19.3 9 Sur 37 Sur 0 1004.9 -- 58
2020-11-14 20:00:00 19.6 15 Sur 40 Sudoeste 0 1004.9 -- 55
2020-11-14 19:00:00 19 13 Sur 38 Sudoeste 0 1004.5 -- 53
2020-11-14 18:00:00 19.5 14 Sudoeste 36 Sur 0.1 1004.2 -- 54
2020-11-14 17:00:00 20 17 Sudoeste 40 Oeste 0 1004.2 -- 52
2020-11-14 16:00:00 20 11 Sudoeste 51 Oeste 0 1004.1 -- 51
2020-11-14 15:00:00 20.6 16 Sudoeste 43 Oeste 0 1004 -- 47
2020-11-14 14:00:00 20.8 13 Sur 28 Sur 0 1004.3 -- 47
2020-11-14 13:00:00 21 9 Sur 33 Sur 0 1004.6 -- 48
2020-11-14 12:00:00 19.4 16 Sur 36 Sur 0 1005.1 -- 50
2020-11-14 11:00:00 19.1 14 Sur 31 Sur 0 1005.5 -- 52
2020-11-14 10:00:00 16.6 14 Sur 36 Sudeste 0 1005.7 -- 60
2020-11-14 09:00:00 17.9 12 Sur 24 Sudoeste 0 1005.6 -- 62
2020-11-14 08:00:00 15.9 13 Sur 31 Sur 0 1005.4 -- 68
2020-11-14 07:00:00 15.5 12 Sur 28 Sudeste 0 1005.4 -- 65
2020-11-14 06:00:00 16.7 10 Sudeste 27 Sudeste 0 1005.2 -- 68
2020-11-14 05:00:00 16 12 Sudeste 25 Sudeste 0 1005.3 -- 66
2020-11-14 04:00:00 16.5 12 Sur 37 Sudeste 0 1005.5 -- 69
2020-11-14 03:00:00 15.3 15 Sudeste 30 Sudeste 0 1005.3 -- 70
2020-11-14 02:00:00 15.9 13 Sur 34 Sur 0 1005.7 -- 68
2020-11-14 01:00:00 14.9 18 Sur 33 Sudeste 0 1006.6 -- 71
2020-11-14 00:00:00 15.1 14 Sudeste 25 Sudeste 0 1007.1 -- 72
2020-11-13 23:00:00 15.2 11 Sudeste 28 Sudeste 0 1007.4 -- 72
2020-11-13 22:00:00 16 14 Sur 28 Sur 0 1007.8 -- 71
2020-11-13 21:00:00 16.1 13 Sur 22 Sudeste 0 1007.3 -- 72
2020-11-13 20:00:00 16.5 13 Sudeste 22 Sur 0 1007.5 -- 68
2020-11-13 19:00:00 16.1 7 Sur 18 Sudeste 0 1007.4 -- 66
2020-11-13 18:00:00 18.2 8 Sur 15 Sudeste 0 1007.4 -- 64
2020-11-13 17:00:00 19.2 5 Sudeste 14 Sur 0 1007.9 -- 59
2020-11-13 16:00:00 19 6 Sudeste 18 Sudeste 0 1007.9 -- 53
2020-11-13 15:00:00 19 9 Sudeste 21 Sudeste 0 1007.8 -- 54
2020-11-13 14:00:00 18.9 9 Sudeste 22 Sudeste 0 1008.7 -- 56
2020-11-13 13:00:00 18.6 11 Sur 24 Sur 0 1008.8 -- 58
2020-11-13 12:00:00 17.6 12 Sur 28 Sur 0 1009.5 -- 61
2020-11-13 11:00:00 17.9 11 Sur 24 Sudeste 0 1010 -- 64
2020-11-13 10:00:00 16.2 14 Sudeste 24 Sudeste 0 1009.9 -- 67
2020-11-13 09:00:00 15.6 12 Sudeste 22 Sur 0 1009.5 -- 71
2020-11-13 08:00:00 15.4 11 Sudeste 20 Sudeste 0 1008.9 -- 70
2020-11-13 07:00:00 15.7 11 Sur 21 Sur 0 1008.6 -- 69
2020-11-13 06:00:00 15.6 11 Sur 22 Sudeste 0 1008.1 -- 68
2020-11-13 05:00:00 15.9 12 Sur 28 Sur 0 1007.6 -- 65
2020-11-13 04:00:00 16.5 13 Sur 33 Sudeste 0 1007 -- 64
2020-11-13 03:00:00 16.9 12 Sur 27 Sur 0 1006.7 -- 63
2020-11-13 02:00:00 16.8 10 Sur 29 Sur 0 1006.9 -- 60
2020-11-13 01:00:00 17.1 14 Sur 29 Sudeste 0 1007.2 -- 58
2020-11-13 00:00:00 16.7 12 Sur 28 Sur 0 1007.6 -- 58
2020-11-12 23:00:00 16.4 13 Sur 59 Sur 0 1007.6 -- 60
2020-11-12 22:00:00 17.1 13 Sur 21 Sur 0 1007.7 -- 61
2020-11-12 21:00:00 16.8 10 Sur 21 Sudeste 0 1007.7 -- 67
2020-11-12 20:00:00 17.8 8 Sur 17 Sudeste 0 1008 -- 80
2020-11-12 19:00:00 16.3 7 Sur 10 Sur 0 1008 -- 85
2020-11-12 18:00:00 17.4 5 Sur 6 Sur 0 1008.4 -- 79
2020-11-12 17:00:00 18.6 3 Oeste 5 Oeste 0 1008.5 -- 73
2020-11-12 16:00:00 18.5 2 Norte 12 Nordeste 0 1008.9 -- 71
2020-11-12 15:00:00 18.2 7 Nordeste 14 Nordeste 0 1009.3 -- 70
2020-11-12 14:00:00 18.6 5 Noroeste 11 Sudeste 0 1009.7 -- 64
2020-11-12 13:00:00 19.6 5 Sur 17 Sudeste 0 1010.4 -- 58
2020-11-12 12:00:00 18.5 6 Sudeste 16 Sur 0 1011 -- 63
2020-11-12 11:00:00 16.9 9 Sur 21 Sudeste 0 1011.1 -- 63
2020-11-12 10:00:00 17.8 9 Sudeste 17 Sudeste 0 1011.4 -- 64
2020-11-12 09:00:00 16 9 Sudeste 21 Sudeste 0 1011.1 -- 70
2020-11-12 08:00:00 16 9 Sudeste 18 Sudeste 0 1010.9 -- 70
2020-11-12 07:00:00 15.7 10 Sur 19 Sur 0 1010.3 -- 69
2020-11-12 06:00:00 14.6 9 Sudeste 19 Sur 0 1010.5 -- 68
2020-11-12 05:00:00 15.7 10 Sur 19 Sudeste 0 1010.4 -- 66
2020-11-12 04:00:00 15.3 10 Sur 19 Sur 0 1010.7 -- 64
2020-11-12 03:00:00 16.8 9 Sur 16 Sur 0 1010.9 -- 63
2020-11-12 02:00:00 16.5 7 Sudeste 11 Sudeste 0 1011 -- 61
2020-11-12 01:00:00 16.7 6 Sudeste 13 Sudeste 0 1011.4 -- 59
2020-11-12 00:00:00 16.4 7 Sur 12 Sudeste 0 1010.8 -- 60
2020-11-11 23:00:00 16.3 7 Sur 13 Sur 0 1010.6 -- 57
2020-11-11 22:00:00 16.4 7 Sur 19 Sur 0 1009.8 -- 55
2020-11-11 21:00:00 17.4 9 Sur 19 Sur 0 1009 -- 55
2020-11-11 20:00:00 16.6 8 Sur 16 Sur 0 1009.3 -- 55
2020-11-11 19:00:00 16.9 7 Sur 15 Sur 0 1009.7 -- 51
2020-11-11 18:00:00 16.8 7 Sur 24 Sur 0.1 1009.1 -- 49
2020-11-11 17:00:00 18.1 9 Sudoeste 25 Sudoeste 0 1009 -- 45
2020-11-11 16:00:00 19.7 9 Sur 31 Sudoeste 0 1008.7 -- 45
2020-11-11 15:00:00 20.1 12 Sudoeste 31 Sur 0 1008.9 -- 44
2020-11-11 14:00:00 19.5 12 Sudoeste 31 Sudoeste 0 1009 -- 47
2020-11-11 13:00:00 19.5 11 Sur 33 Sudeste 0 1009.6 -- 51
2020-11-11 12:00:00 18.3 12 Sur 31 Sur 0 1010.3 -- 57
2020-11-11 11:00:00 16.3 12 Sudeste 33 Sudoeste 0 1010.5 -- 60
2020-11-11 10:00:00 17.4 10 Sur 35 Sur 0 1011.3 -- 59
2020-11-11 09:00:00 16.4 13 Sudeste 23 Sudeste 0 1011.7 -- 68
2020-11-11 08:00:00 15.7 12 Sudeste 24 Sur 0 1011.7 -- 69
2020-11-11 07:00:00 13.8 13 Sur 23 Sur 0 1011.8 -- 74
2020-11-11 06:00:00 14.2 13 Sur 24 Sur 0 1012.2 -- 82
2020-11-11 05:00:00 13 12 Sur 23 Sur 0 1012.4 -- 90
2020-11-11 04:00:00 12.6 12 Sur 24 Sudeste 0 1013.2 -- 92
2020-11-11 03:00:00 13.4 11 Sur 23 Sur 0 1013.9 -- 94
2020-11-11 02:00:00 13.3 11 Sur 21 Sur 0 1014.7 -- 95
2020-11-11 01:00:00 13 10 Sur 19 Sur 0 1015.2 -- 95
2020-11-11 00:00:00 14.6 9 Sur 17 Sudeste 0 1015.9 -- 95
2020-11-10 23:00:00 14.1 7 Sur 17 Sudeste 0 1016.4 -- 95
2020-11-10 22:00:00 14.7 9 Sur 15 Sur 0 1016.5 -- 95
2020-11-10 21:00:00 14.6 6 Sur 12 Sur 0 1016.7 -- 94
2020-11-10 20:00:00 15.5 4 Sur 9 Sur 0 1016.6 -- 93
2020-11-10 19:00:00 15.3 5 Sudeste 10 Sudeste 0 1016.5 -- 91
2020-11-10 18:00:00 15.7 4 Sudeste 10 Sudeste 0 1016.4 -- 89
2020-11-10 17:00:00 17.5 3 Este 10 Nordeste 0 1017 -- 87
2020-11-10 16:00:00 17.8 5 Nordeste 14 Este 0 1016.9 -- 87
2020-11-10 15:00:00 16.9 7 Nordeste 12 Nordeste 0 1017.4 -- 85
2020-11-10 14:00:00 16.9 2 Noroeste 6 Noroeste 0 1017.9 -- 87
2020-11-10 13:00:00 17.8 2 Noroeste 5 Este 0 1018.2 -- 87
2020-11-10 12:00:00 17.5 3 Sudeste 8 Sudeste 0 1018.8 -- 96
2020-11-10 11:00:00 16.5 5 Sudeste 11 Sudeste 0 1018.8 -- 97
2020-11-10 10:00:00 16 5 Sur 11 Sudeste 0 1018.1 -- 97
2020-11-10 09:00:00 13.9 6 Sur 10 Sur 0 1017.8 -- 97
2020-11-10 08:00:00 15.2 6 Sur 10 Sudeste 0 1017.2 -- 97
2020-11-10 07:00:00 16.1 0 Calma 10 Noroeste 0 1016.7 -- 97
2020-11-10 06:00:00 16.2 0 Calma 12 Noroeste 3.1 1016.4 -- 97
2020-11-10 05:00:00 16.9 4 Oeste 17 Oeste 8.3 1016.1 -- 97
2020-11-10 04:00:00 16.4 0 Calma 18 Noroeste 3.8 1015.8 -- 96
2020-11-10 03:00:00 16.3 11 Noroeste 23 Noroeste 4.7 1015.6 -- 95
2020-11-10 02:00:00 16.9 4 Noroeste 13 Oeste 0 1015.6 -- 95
2020-11-10 01:00:00 18.3 5 Noroeste 14 Norte 0 1015.5 -- 95
2020-11-10 00:00:00 17.5 5 Noroeste 17 Oeste 0 1015.3 -- 95
2020-11-09 23:00:00 17.6 9 Noroeste 15 Noroeste 0 1014.9 -- 91
2020-11-09 22:00:00 16.5 5 Oeste 14 Noroeste 0 1014.4 -- 91
2020-11-09 21:00:00 16.9 8 Noroeste 16 Oeste 0.1 1014.1 -- 93
2020-11-09 20:00:00 17.8 9 Noroeste 15 Noroeste 0.4 1013.5 -- 93
2020-11-09 19:00:00 17.8 5 Oeste 8 Oeste 0 1012.9 -- 89
2020-11-09 18:00:00 17.8 6 Noroeste 9 Noroeste 0 1012 -- 86
2020-11-09 17:00:00 17 2 Norte 13 Nordeste 0 1011.5 -- 76
2020-11-09 16:00:00 17.7 8 Nordeste 14 Norte 0 1010.9 -- 74
2020-11-09 15:00:00 20.4 5 Nordeste 9 Nordeste 0 1010.5 -- 46
2020-11-09 14:00:00 21.6 3 Sudoeste 14 Sudoeste 0 1010.1 -- 43
2020-11-09 13:00:00 20.5 6 Sudoeste 15 Oeste 0 1010.4 -- 48
2020-11-09 12:00:00 19.8 7 Sur 18 Sudoeste 0 1010.6 -- 54
2020-11-09 11:00:00 19.3 7 Sur 23 Sur 0 1010.2 -- 56
2020-11-09 10:00:00 17.1 8 Sur 21 Sudoeste 0 1009.9 -- 65
2020-11-09 09:00:00 16.9 8 Sur 26 Sudeste 0 1009.3 -- 64
2020-11-09 08:00:00 15.9 7 Sur 25 Sur 0 1008.5 -- 67
2020-11-09 07:00:00 16.9 5 Sur 19 Sudoeste 0 1008.1 -- 64
2020-11-09 06:00:00 17.7 6 Sur 30 Sur 0 1008 -- 62
2020-11-09 05:00:00 15.7 6 Sudeste 19 Sur 0 1007.1 -- 66
2020-11-09 04:00:00 18.4 6 Sur 19 Sudoeste 0 1007.5 -- 59
2020-11-09 03:00:00 18.8 6 Sur 18 Sur 0 1007.5 -- 58
2020-11-09 02:00:00 18.4 6 Sudoeste 24 Oeste 0 1007.4 -- 57
2020-11-09 01:00:00 18.9 6 Sur 36 Sudoeste 0 1007.5 -- 55
2020-11-09 00:00:00 18.7 13 Sur 31 Sur 0 1007 -- 58
2020-11-08 23:00:00 18.3 11 Sur 29 Sur 0 1007.2 -- 58
2020-11-08 22:00:00 18.9 6 Sur 25 Sur 0 1007.5 -- 59
2020-11-08 21:00:00 18.3 10 Sur 32 Sur 0 1006.9 -- 62
2020-11-08 20:00:00 18.6 10 Sur 24 Sur 0 1006.7 -- 61
2020-11-08 19:00:00 18.9 6 Sudeste 24 Sur 0 1007.2 -- 57
2020-11-08 18:00:00 18.5 6 Sur 22 Sur 0.1 1006.7 -- 56
2020-11-08 17:00:00 18.5 6 Sur 19 Sur 0 1006.7 -- 54
2020-11-08 16:00:00 20.4 10 Sur 25 Sur 0 1006.7 -- 47
2020-11-08 15:00:00 20.6 13 Sur 34 Sur 0 1006.7 -- 45
2020-11-08 14:00:00 21.2 12 Sur 30 Sur 0 1007.3 -- 44
2020-11-08 13:00:00 20.4 16 Sur 30 Sur 0 1007.9 -- 44
2020-11-08 12:00:00 20.8 13 Sur 34 Sur 0 1008.3 -- 45
2020-11-08 11:00:00 19.9 13 Sur 35 Sur 0 1008.6 -- 48
2020-11-08 10:00:00 19.3 8 Sur 33 Sur 0 1008.6 -- 50
2020-11-08 09:00:00 19.1 10 Sur 30 Sur 0 1008.4 -- 53
2020-11-08 08:00:00 18 9 Sur 26 Sur 0 1008 -- 58
2020-11-08 07:00:00 18.2 6 Sur 39 Sur 0 1007.7 -- 59
2020-11-08 06:00:00 18.8 13 Sur 31 Sur 0 1008 -- 60
2020-11-08 05:00:00 18.4 10 Sur 24 Sudeste 0 1007.8 -- 60
2020-11-08 04:00:00 18.3 12 Sur 22 Sur 0 1008.3 -- 61
2020-11-08 03:00:00 18.6 9 Sur 24 Sudeste 0 1008.6 -- 61
2020-11-08 02:00:00 18.6 6 Sur 23 Sur 0 1008.6 -- 60
2020-11-08 01:00:00 17.7 6 Sur 17 Sur 0 1008.7 -- 60
2020-11-08 00:00:00 17.9 4 Sudeste 14 Este 0 1008.5 -- 61
2020-11-07 23:00:00 17.8 4 Sudeste 12 Sudeste 0 1008.4 -- 62
2020-11-07 22:00:00 16.9 5 Sur 12 Sur 0 1008 -- 70
2020-11-07 21:00:00 16 4 Sur 16 Sur 0 1007.4 -- 81
2020-11-07 20:00:00 16.7 6 Sudeste 9 Sudoeste 0 1006.6 -- 94
2020-11-07 19:00:00 16.9 0 Calma 8 Noroeste 0 1006.1 -- 93
2020-11-07 18:00:00 16.9 4 Noroeste 17 Oeste 0 1005.4 -- 93
2020-11-07 17:00:00 19.9 7 Sudoeste 24 Sur 0 1004.6 -- 55
2020-11-07 16:00:00 19.6 9 Sur 23 Sur 0 1004.2 -- 59
2020-11-07 15:00:00 19.5 11 Sur 32 Sudoeste 0 1003.8 -- 63
2020-11-07 14:00:00 18.8 14 Sur 30 Sur 0 1003.2 -- 71
2020-11-07 13:00:00 18.6 7 Sur 26 Sur 0 1003.4 -- 78
2020-11-07 12:00:00 18.8 6 Sudeste 17 Sur 0 1003.3 -- 92
2020-11-07 11:00:00 16.7 8 Sur 17 Sudeste 0 1003.4 -- 95
2020-11-07 10:00:00 16.9 9 Sudeste 18 Sur 0 1002.8 -- 95
2020-11-07 09:00:00 15.6 8 Sur 19 Este 0.1 1002.1 -- 95
2020-11-07 08:00:00 16.3 10 Sudeste 21 Sudeste 2.3 1002.1 -- 95
2020-11-07 07:00:00 17.4 11 Sur 27 Sur 0.8 1002.7 -- 91
2020-11-07 06:00:00 20.1 14 Sur 37 Sudeste 0 1002.5 -- 73
2020-11-07 05:00:00 20.6 17 Sudeste 45 Sudeste 0 1001.9 -- 65
2020-11-07 04:00:00 20.4 18 Sur 44 Sudeste 0 1002.3 -- 65
2020-11-07 03:00:00 20.2 18 Sudeste 38 Sur 0 1002.3 -- 65
2020-11-07 02:00:00 20.8 14 Sudeste 41 Sur 0 1002.5 -- 65
2020-11-07 01:00:00 20.9 20 Sudeste 41 Sur 0 1002 -- 66
2020-11-07 00:00:00 21 14 Sur 41 Sudeste 0 1002.5 -- 63
2020-11-06 23:00:00 21.1 18 Sur 46 Sudeste 0 1002.8 -- 63
2020-11-06 22:00:00 20.7 19 Sudeste 53 Sudeste 0 1001.9 -- 63
2020-11-06 21:00:00 20.8 19 Sur 53 Sur 0 1002.1 -- 63
2020-11-06 20:00:00 21.2 24 Sur 57 Sur 0 1002.5 -- 63
2020-11-06 19:00:00 20.6 18 Sur 47 Sur 0 1002.9 -- 65
2020-11-06 18:00:00 21.3 17 Sur 52 Sudeste 0 1003.1 -- 66
2020-11-06 17:00:00 20.3 20 Sur 66 Sudeste 0 1003.2 -- 63
2020-11-06 16:00:00 21.3 27 Sur 64 Sur 0 1003.2 -- 60
2020-11-06 15:00:00 20.7 15 Sudeste 48 Sudeste 0 1003.6 -- 61
2020-11-06 14:00:00 21.6 19 Sudeste 39 Sudeste 0 1004.9 -- 62
2020-11-06 13:00:00 20.9 18 Sudeste 44 Sudeste 0 1006.6 -- 66
2020-11-06 12:00:00 20.3 15 Sur 40 Sur 0.1 1007.5 -- 66
2020-11-06 11:00:00 20.6 15 Sur 37 Sudeste 0 1007.7 0.4 65
2020-11-06 10:00:00 19.7 15 Sur 37 Sudeste 0 1008 -- 70
2020-11-06 09:00:00 19.2 10 Sur 29 Sur 0 1007.9 -- 72
2020-11-06 08:00:00 19.4 15 Sur 36 Sur 0 1007.3 -- 72
2020-11-06 07:00:00 17.4 9 Sur 26 Sur 0 1007.4 -- 78
2020-11-06 06:00:00 18.6 12 Sur 35 Sudeste 0 1007.4 -- 76
2020-11-06 05:00:00 17.5 12 Sudeste 37 Sudeste 0 1007.8 -- 74
2020-11-06 04:00:00 18.4 10 Sudeste 38 Sur 0 1007.9 -- 76
2020-11-06 03:00:00 18.1 20 Sudeste 45 Sudeste 0 1009.2 -- 72
2020-11-06 02:00:00 18 17 Sudeste 33 Sudeste 0 1009 -- 70
2020-11-06 01:00:00 18.1 13 Sudeste 36 Sudeste 0 1009.5 -- 73
2020-11-06 00:00:00 17.7 17 Sudeste 35 Sudeste 0 1010 -- 75
2020-11-05 23:00:00 15.4 4 Sur 14 Sur 0 1010.6 -1.1 82
2020-11-05 22:00:00 14.2 3 Sur 11 Este 0 1011.1 -- 85
2020-11-05 21:00:00 13.6 2 Sudeste 13 Este 0 1011.2 -- 86
2020-11-05 20:00:00 13.8 7 Este 17 Este 0 1011.7 -- 84
2020-11-05 19:00:00 14.5 5 Sudeste 23 Este 0 1011.9 -- 80
2020-11-05 18:00:00 14.7 11 Sudeste 26 Sudeste 0 1012.1 -- 78
2020-11-05 17:00:00 16 10 Este 16 Sudeste 0 1012.1 -- 75
2020-11-05 16:00:00 15.8 8 Este 19 Este 0 1012.2 -- 73
2020-11-05 15:00:00 16.1 11 Nordeste 19 Nordeste 0 1013.1 -- 73
2020-11-05 14:00:00 16 3 Nordeste 10 Noroeste 0 1013.9 -- 73
2020-11-05 13:00:00 15.2 6 Norte 14 Este 0 1014.9 -- 70
2020-11-05 12:00:00 14.6 8 Sudeste 14 Sudeste 0 1016.2 -- 74
2020-11-05 11:00:00 13.4 7 Sur 13 Sur 0 1016.8 -- 81
2020-11-05 10:00:00 11.9 5 Sur 12 Sudeste 0 1017.1 -- 89
2020-11-05 09:00:00 10.7 6 Sudeste 11 Sur 0 1017.5 -- 91
2020-11-05 08:00:00 10.4 8 Sur 12 Sur 0 1017.1 -- 91
2020-11-05 07:00:00 9.6 6 Sudeste 10 Sudeste 0 1017.1 -- 91
2020-11-05 06:00:00 10.2 6 Sur 9 Sur 0 1017.2 -- 90
2020-11-05 05:00:00 11.3 4 Sur 6 Sur 0 1017.4 -- 86
2020-11-05 04:00:00 12.7 3 Sur 8 Sur 0 1017.6 -- 84
2020-11-05 03:00:00 12.2 4 Sur 8 Sur 0 1018 -- 84
2020-11-05 02:00:00 12 4 Sur 10 Sudeste 0 1017.8 -- 82
2020-11-05 01:00:00 12.7 4 Sudeste 16 Este 0 1017.7 -- 79
2020-11-05 00:00:00 12.8 6 Sudeste 14 Sudeste 0 1018 -- 76
2020-11-04 23:00:00 12.4 7 Sudeste 19 Sudeste 0 1018 -- 74
2020-11-04 22:00:00 12.6 9 Este 17 Sudeste 0 1017.6 -- 74
2020-11-04 21:00:00 13.4 6 Sudeste 12 Sudeste 0 1017.2 -- 75
2020-11-04 20:00:00 12.5 4 Sudeste 11 Sudeste 0 1017.1 -- 77
2020-11-04 19:00:00 12.2 4 Sudeste 12 Sudeste 0 1016.6 -- 78
2020-11-04 18:00:00 12.5 8 Este 23 Este 0 1016.1 -- 74
2020-11-04 17:00:00 13.1 9 Este 26 Este 0 1016.1 -- 72
2020-11-04 16:00:00 13.9 14 Este 29 Este 0 1015.7 -- 70
2020-11-04 15:00:00 13.6 14 Este 27 Este 0 1015.5 -- 73
2020-11-04 14:00:00 13.3 13 Este 21 Este 0 1015.9 -- 78
2020-11-04 13:00:00 11.7 3 Noroeste 10 Norte 0 1016.1 -- 91
2020-11-04 12:00:00 13.4 3 Oeste 7 Noroeste 0.2 1016.8 -- 94
2020-11-04 11:00:00 11.8 6 Este 14 Este 1.2 1016.8 0.7 97
2020-11-04 10:00:00 11.6 2 Nordeste 6 Nordeste 0.8 1016.8 -- 97
2020-11-04 09:00:00 11.5 2 Este 8 Sudeste 1.8 1016.7 -- 97
2020-11-04 08:00:00 10.8 6 Sudoeste 13 Sur 0.2 1016.1 -- 98
2020-11-04 07:00:00 11.1 7 Sur 11 Sudeste 0 1016.4 -- 97
2020-11-04 06:00:00 11.8 5 Sur 12 Sur 0.4 1017.2 -- 97
2020-11-04 05:00:00 10.5 6 Sur 14 Sur 0.8 1017.5 -- 97
2020-11-04 04:00:00 11.5 5 Sur 11 Sudeste 0.1 1018 -- 97
2020-11-04 03:00:00 11.7 4 Sudoeste 10 Oeste 3.5 1018.5 -- 97
2020-11-04 02:00:00 10.7 6 Sur 14 Sudeste 0.1 1019.2 -- 97
2020-11-04 01:00:00 11.4 6 Sur 13 Sur 0.3 1020.2 -- 96
2020-11-04 00:00:00 13.1 2 Sur 13 Oeste 0.4 1020.7 -- 96
2020-11-03 23:00:00 12.5 6 Sur 13 Sur 0.3 1021.7 -- 96
2020-11-03 22:00:00 11.6 9 Sudeste 15 Sudeste 0 1021.8 -- 95
2020-11-03 21:00:00 13.1 4 Sur 15 Oeste 0 1021.9 -- 87
2020-11-03 20:00:00 13.6 8 Noroeste 16 Oeste 0 1021.9 -- 84
2020-11-03 19:00:00 13.8 8 Oeste 20 Oeste 0.7 1022.1 -- 91
2020-11-03 18:00:00 14.1 9 Oeste 31 Norte 0.1 1022.1 -- 81
2020-11-03 17:00:00 14.4 7 Norte 29 Noroeste 0 1022.1 -- 72
2020-11-03 16:00:00 14.6 11 Noroeste 29 Noroeste 0 1021.8 -- 68
2020-11-03 15:00:00 15.1 12 Noroeste 30 Noroeste 0 1021.7 -- 73
2020-11-03 14:00:00 13.5 17 Noroeste 30 Noroeste 0.6 1022.1 -- 93
2020-11-03 13:00:00 14.7 7 Noroeste 32 Norte 0 1022 -- 88
2020-11-03 12:00:00 14.8 15 Noroeste 41 Noroeste 0.4 1021.9 -- 95
2020-11-03 11:00:00 15.1 14 Noroeste 36 Noroeste 0.1 1021.3 -- 90
2020-11-03 10:00:00 15.6 14 Noroeste 27 Noroeste 0 1020.7 -- 88
2020-11-03 09:00:00 15.1 4 Oeste 9 Noroeste 0 1020.2 -- 97
2020-11-03 08:00:00 14.6 3 Sur 8 Oeste 0 1019.6 -- 97
2020-11-03 07:00:00 14.4 4 Oeste 16 Oeste 0.8 1018.9 -- 97
2020-11-03 06:00:00 14.7 3 Noroeste 15 Noroeste 0.3 1018.9 -- 97
2020-11-03 05:00:00 15.7 8 Noroeste 14 Noroeste 0.5 1018.6 -- 97
2020-11-03 04:00:00 14.3 0 Calma 7 Sudoeste 0.1 1018.3 -- 97
2020-11-03 03:00:00 14 3 Noroeste 18 Norte 1.1 1018.3 -- 97
2020-11-03 02:00:00 15.4 7 Noroeste 15 Noroeste 1.3 1017.7 -- 97
2020-11-03 01:00:00 14.4 4 Norte 19 Nordeste 1.9 1017.5 -- 97
2020-11-03 00:00:00 15.1 7 Noroeste 19 Norte 0.5 1017.5 -- 97
2020-11-02 23:00:00 14.9 8 Noroeste 19 Norte 0.8 1017.1 -- 97
2020-11-02 22:00:00 14.2 12 Noroeste 22 Oeste 0 1016.9 -- 95
2020-11-02 21:00:00 15.4 9 Noroeste 25 Noroeste 0.2 1016.8 -- 95
2020-11-02 20:00:00 16.2 13 Noroeste 23 Oeste 0 1016.3 -- 89
2020-11-02 19:00:00 18 10 Noroeste 27 Noroeste 0 1015.6 -- 88
2020-11-02 18:00:00 16.6 19 Noroeste 40 Noroeste 0 1015 -- 95
2020-11-02 17:00:00 16.9 24 Noroeste 42 Noroeste 0 1014.2 -- 93
2020-11-02 16:00:00 17.5 25 Noroeste 47 Noroeste 0 1013.5 -- 92
2020-11-02 15:00:00 18.4 22 Noroeste 73 Noroeste 0 1012.5 -- 93
2020-11-02 14:00:00 25.3 6 Sudoeste 17 Sur 0 1010 -- 49
2020-11-02 13:00:00 24.6 9 Sur 18 Sur 0 1009.7 -- 53
2020-11-02 12:00:00 23.2 10 Sur 19 Sudoeste 0 1009.6 -- 58
2020-11-02 11:00:00 22.5 6 Sur 15 Sur 0 1009.6 -- 61
2020-11-02 10:00:00 21.8 8 Sur 19 Sur 0 1009.9 -- 66
2020-11-02 09:00:00 20.6 8 Sur 17 Sur 0 1009.5 -- 69
2020-11-02 08:00:00 20.7 7 Sudoeste 14 Sudoeste 0 1009 -- 71
2020-11-02 07:00:00 20.6 4 Sur 14 Sudoeste 0 1008.7 -- 71
2020-11-02 06:00:00 20.2 6 Sudoeste 14 Oeste 0 1008.6 -- 72
2020-11-02 05:00:00 19 5 Sur 16 Sudoeste 0 1008.2 -- 72
2020-11-02 04:00:00 21.3 4 Sur 18 Sudoeste 0 1008 -- 70
2020-11-02 03:00:00 20.4 6 Sudoeste 20 Sur 0 1008.2 -- 73
2020-11-02 02:00:00 20.2 4 Sudoeste 14 Sudoeste 0 1008.6 -- 72
2020-11-02 01:00:00 20.6 8 Sudoeste 19 Sur 0 1008.7 -- 70
2020-11-02 00:00:00 20.7 2 Sur 22 Sur 0 1008.9 -- 66
2020-11-01 23:00:00 20.9 7 Sur 26 Sudoeste 0 1008.5 -- 66
2020-11-01 22:00:00 21.8 12 Sur 26 Sur 0 1008.4 -- 63
2020-11-01 21:00:00 21.3 10 Sur 23 Sur 0 1008.5 -- 63
2020-11-01 20:00:00 21.6 9 Sur 27 Sur 0 1008.5 -- 63
2020-11-01 19:00:00 21.5 13 Sur 28 Sur 0 1008.2 -- 61
2020-11-01 18:00:00 21.3 13 Sur 28 Sur 0 1008.2 -- 61
2020-11-01 17:00:00 22.1 12 Sur 23 Sur 0 1008.7 -- 59
2020-11-01 16:00:00 23.4 10 Sur 22 Sur 0 1009.4 -- 58
2020-11-01 15:00:00 22.9 7 Sur 17 Sur 0 1009.5 -- 60
2020-11-01 14:00:00 23 9 Sur 24 Sur 0 1009.7 -- 58
2020-11-01 13:00:00 23.7 10 Sur 24 Sur 0 1010.6 -- 57
2020-11-01 12:00:00 22.5 11 Sur 24 Sur 0 1010.9 0 60
2020-11-01 11:00:00 22 11 Sur 23 Sur 0 1011.1 -- 60
2020-11-01 10:00:00 21.6 10 Sur 24 Sur 0 1011.3 -- 61
2020-11-01 09:00:00 20.3 9 Sur 20 Sudeste 0 1010.9 -- 65
2020-11-01 08:00:00 19.2 10 Sur 18 Sudeste 0 1010 -- 65
2020-11-01 07:00:00 19.9 9 Sur 18 Sur 0 1009.7 -- 65
2020-11-01 06:00:00 19.7 9 Sur 17 Sur 0 1009.7 -- 66
2020-11-01 05:00:00 19.4 7 Sur 15 Sur 0 1009.6 -- 67
2020-11-01 04:00:00 19.8 7 Sur 15 Sudeste 0 1009.9 -- 69
2020-11-01 03:00:00 18.8 6 Sur 18 Sur 0 1010.2 -- 67
2020-11-01 02:00:00 19.6 8 Sur 24 Sudoeste 0 1010.7 -- 64
2020-11-01 01:00:00 19.2 8 Sur 20 Sur 0 1011 -- 68
2020-11-01 00:00:00 19.4 8 Sur 17 Sur 0 1010.8 -- 66
2020-10-31 23:00:00 19.6 8 Sur 19 Sur 0 1011.1 -- 62
2020-10-31 22:00:00 20.2 10 Sur 24 Sur 0 1010.7 -- 60
2020-10-31 21:00:00 19.9 10 Sur 25 Sur 0 1010.7 -- 56
2020-10-31 20:00:00 20.3 10 Sudeste 21 Sudeste 0 1010.9 -- 57
2020-10-31 19:00:00 20.5 9 Sur 17 Sur 0 1011.2 -- 56
2020-10-31 18:00:00 21.3 8 Sur 17 Sur 0 1010.6 -- 50
2020-10-31 17:00:00 23.4 7 Sur 16 Sur 0 1010.6 -- 47
2020-10-31 16:00:00 24.8 6 Sur 14 Sur 0 1010.6 -- 45
2020-10-31 15:00:00 24.4 6 Sur 14 Sur 0 1010.9 -- 44
2020-10-31 14:00:00 23.8 7 Sur 19 Sudoeste 0 1011.7 -- 48
2020-10-31 13:00:00 23 6 Sur 18 Sudoeste 0 1011.5 -- 49
2020-10-31 12:00:00 23 7 Sur 22 Sur 0 1011.5 -- 46
2020-10-31 11:00:00 22.4 10 Sur 31 Sur 0 1011 -- 52
2020-10-31 10:00:00 21.3 9 Sur 18 Sudeste 0 1011.8 -- 58
2020-10-31 09:00:00 19.8 8 Sur 21 Sur 0 1011.8 -- 59
2020-10-31 08:00:00 18.9 11 Sur 21 Sur 0 1011.3 -- 61
2020-10-31 07:00:00 19.8 11 Sur 27 Sur 0 1010.5 -- 62
2020-10-31 06:00:00 19.4 11 Sudoeste 26 Sur 0 1010.8 -- 67
2020-10-31 05:00:00 18.3 9 Sudoeste 28 Oeste 0 1011.2 -- 72
2020-10-31 04:00:00 16.8 8 Sur 18 Sur 0 1010.9 -- 81
2020-10-31 03:00:00 15.3 8 Sur 14 Sudoeste 0 1011.1 -- 96
2020-10-31 02:00:00 14.2 8 Sur 12 Sudoeste 0 1011.7 -- 97
2020-10-31 01:00:00 13.3 6 Sur 11 Sudoeste 0 1012 -- 97
2020-10-31 00:00:00 13.9 3 Sur 10 Sur 0 1012.9 -- 97
2020-10-30 23:00:00 15.2 5 Sur 9 Sur 0 1013.1 -- 97
2020-10-30 22:00:00 14.8 3 Sur 10 Sur 0 1013.3 -- 97
2020-10-30 21:00:00 15.4 7 Sur 11 Sur 0 1013.6 -- 96
2020-10-30 20:00:00 16.3 3 Sur 5 Sur 0 1013.9 -- 94
2020-10-30 19:00:00 16.1 0 Calma 5 Nordeste 0.1 1014.1 -- 93
2020-10-30 18:00:00 16.5 3 Nordeste 9 Nordeste 0 1014 -- 91
2020-10-30 17:00:00 16.9 4 Norte 13 Noroeste 0 1014.4 -- 89
2020-10-30 16:00:00 16.8 5 Norte 10 Noroeste 0 1014.5 -- 88
2020-10-30 15:00:00 17 5 Norte 10 Oeste 0 1014.3 -- 88
2020-10-30 14:00:00 16.8 7 Norte 12 Noroeste 0 1014.5 -- 90
2020-10-30 13:00:00 16.9 6 Norte 10 Norte 0 1014.8 -- 90
2020-10-30 12:00:00 16.7 3 Norte 8 Norte 0 1015.3 -- 92
2020-10-30 11:00:00 17.2 0 Calma 8 Sur 0 1015.3 -- 95
2020-10-30 10:00:00 15.1 6 Sur 12 Sur 0 1015.2 -- 97
2020-10-30 09:00:00 12.2 8 Sur 13 Sudeste 0 1015.2 -- 97
2020-10-30 08:00:00 10.6 8 Sur 12 Sur 0 1014.6 -- 97
2020-10-30 07:00:00 12.3 9 Sur 12 Sur 0 1014.5 -- 97
2020-10-30 06:00:00 11.9 8 Sur 12 Sur 0 1014.7 -- 96
2020-10-30 05:00:00 11.9 8 Sur 10 Sur 0 1014.5 -- 96
2020-10-30 04:00:00 12.6 8 Sur 12 Sur 0 1014.3 -- 97
2020-10-30 03:00:00 12.6 7 Sur 12 Sur 0 1014.7 -- 97
2020-10-30 02:00:00 13 5 Sur 9 Sur 0 1015 -- 96
2020-10-30 01:00:00 12.6 6 Sur 10 Sur 0 1014.7 -- 96
2020-10-30 00:00:00 13.6 6 Sudoeste 8 Sur 0 1014.8 -- 95
2020-10-29 23:00:00 13.3 0 Calma 12 Sur 0 1014.7 -- 95
2020-10-29 22:00:00 13.9 6 Sur 9 Sur 0 1014.6 -- 95
2020-10-29 21:00:00 15.2 4 Sur 8 Sudeste 0 1014.6 -- 94
2020-10-29 20:00:00 16.2 7 Sudeste 9 Sudeste 0 1014.9 -- 94
2020-10-29 19:00:00 17 6 Oeste 18 Oeste 0 1014.6 -- 91
2020-10-29 18:00:00 17 9 Oeste 16 Oeste 0 1014.4 -- 90
2020-10-29 17:00:00 17.7 9 Oeste 14 Oeste 0 1014.3 -- 84
2020-10-29 16:00:00 18.4 2 Norte 17 Nordeste 0 1014.5 -- 80
2020-10-29 15:00:00 17.1 9 Nordeste 18 Nordeste 0 1014.8 -- 82
2020-10-29 14:00:00 17.3 10 Nordeste 17 Nordeste 0 1015.2 -- 77
2020-10-29 13:00:00 17.5 10 Nordeste 16 Nordeste 0 1015.7 -- 72
2020-10-29 12:00:00 18.4 5 Sudeste 18 Sudeste 0 1016.2 -- 67
2020-10-29 11:00:00 16.7 9 Sudeste 18 Sudeste 0 1016.4 -- 73
2020-10-29 10:00:00 16.4 10 Sur 18 Sur 0 1016.1 -- 79
2020-10-29 09:00:00 13.9 7 Sur 15 Sudeste 0 1016 -- 90
2020-10-29 08:00:00 11.8 9 Sur 17 Sur 0 1015.4 -- 92
2020-10-29 07:00:00 13.7 5 Sur 14 Sur 0 1015.6 -- 91
2020-10-29 06:00:00 12.7 9 Sur 17 Sur 0 1014.9 -- 91
2020-10-29 05:00:00 13.8 10 Sur 15 Sur 0 1015.5 -- 91
2020-10-29 04:00:00 15.4 9 Sur 14 Sur 0 1015.7 -- 90
2020-10-29 03:00:00 14 8 Sur 15 Sur 0 1015 -- 90
2020-10-29 02:00:00 13.7 8 Sur 14 Sur 0 1015 -- 90
2020-10-29 01:00:00 14.9 8 Sur 13 Sur 0 1015.2 -- 91
2020-10-29 00:00:00 14.7 8 Sur 14 Sur 0 1014.9 -- 91
2020-10-28 23:00:00 14.2 8 Sur 14 Sur 0 1014.2 -- 91
2020-10-28 22:00:00 15.1 8 Sur 11 Sur 0 1014.3 -- 88
2020-10-28 21:00:00 14.9 6 Sur 9 Sur 0 1013.9 -- 86
2020-10-28 20:00:00 16 4 Sur 5 Sur 0 1013.4 -- 77
2020-10-28 19:00:00 16.8 4 Sur 6 Sur 0 1013.4 -- 75
2020-10-28 18:00:00 17.3 0 Calma -- -- 0 1012.8 -- 75
2020-10-28 17:00:00 17.6 0 Calma 10 Oeste 0 1012.6 -- 67
2020-10-28 16:00:00 17.9 5 Oeste 15 Noroeste 0 1011.7 -- 63
2020-10-28 15:00:00 17.8 12 Noroeste 24 Noroeste 0 1011.5 -- 67
2020-10-28 14:00:00 17.8 10 Noroeste 19 Noroeste 0 1011.4 -- 74
2020-10-28 13:00:00 17.5 11 Noroeste 18 Oeste 0 1011.5 -- 70
2020-10-28 12:00:00 16.7 4 Oeste 12 Sudoeste 0 1011.7 -- 79
2020-10-28 11:00:00 17.3 4 Sur 9 Sur 0 1011.1 -- 95
2020-10-28 10:00:00 16.7 4 Sudeste 9 Sudeste 0 1010.2 -- 96
2020-10-28 09:00:00 17.3 6 Sudeste 10 Sudeste 0 1009.6 -- 96
2020-10-28 08:00:00 15.8 4 Sur 8 Sur 0 1008.5 -- 95
2020-10-28 07:00:00 17.4 4 Sudoeste 14 Oeste 0 1008.2 -- 95
2020-10-28 06:00:00 15.9 8 Noroeste 19 Noroeste 0 1007.5 -- 96
2020-10-28 05:00:00 17 8 Noroeste 25 Noroeste 0 1007.2 -- 96
2020-10-28 04:00:00 16.3 12 Noroeste 24 Noroeste 0 1007 -- 96
2020-10-28 03:00:00 16.9 5 Noroeste 13 Noroeste 0 1007.1 -- 96
2020-10-28 02:00:00 17 4 Noroeste 14 Nordeste 0 1006.9 -- 96
2020-10-28 01:00:00 16.3 4 Norte 17 Norte 0 1006.6 -- 95
2020-10-28 00:00:00 17.5 4 Noroeste 24 Noroeste 0 1006.3 -- 95